Time;durP1;ratioP1;P1;durP2;ratioP2;P2;SDS_P1;SDS_P2;PMS_P1;PMS_P2;Temp;Humidity;BMP_temperature;BMP_pressure;BME280_temperature;BME280_humidity;BME280_pressure;Samples;Min_cycle;Max_cycle;Signal;HPM_P1;HPM_P2
2022/08/16 00:00:57;;;;;;;3.67;3.38;;;22.80;99.90;;;;;;2077805;28;20037;-68
2022/08/16 00:01:57;;;;;;;5.68;3.50;;;22.80;99.90;;;;;;2073141;28;20030;-68
2022/08/16 00:02:59;;;;;;;3.83;3.17;;;22.90;99.90;;;;;;2074667;28;20030;-68
2022/08/16 00:04:00;;;;;;;4.40;3.78;;;22.80;99.90;;;;;;2071352;28;20040;-68
2022/08/16 00:05:03;;;;;;;4.38;3.97;;;22.80;99.90;;;;;;2074585;28;20045;-68
2022/08/16 00:06:04;;;;;;;3.60;3.30;;;22.70;99.90;;;;;;2073744;28;20030;-68
2022/08/16 00:07:05;;;;;;;3.95;3.60;;;22.80;99.90;;;;;;2076562;28;20389;-68
2022/08/16 00:08:09;;;;;;;3.30;3.00;;;22.70;99.90;;;;;;2074183;28;20057;-68
2022/08/16 00:09:10;;;;;;;3.47;3.05;;;22.70;99.90;;;;;;2072563;28;20327;-68
2022/08/16 00:10:14;;;;;;;5.75;3.33;;;22.70;99.90;;;;;;2078078;28;20033;-68
2022/08/16 00:11:15;;;;;;;6.93;3.58;;;22.70;99.90;;;;;;2073064;28;20034;-68
2022/08/16 00:12:16;;;;;;;3.58;3.20;;;22.70;99.90;;;;;;2072316;28;20053;-68
2022/08/16 00:13:17;;;;;;;6.43;3.95;;;22.70;99.90;;;;;;2070702;28;20692;-68
2022/08/16 00:14:24;;;;;;;3.17;2.97;;;22.60;99.90;;;;;;2071353;28;20036;-68
2022/08/16 00:15:43;;;;;;;4.00;3.67;;;22.60;99.90;;;;;;2071849;28;20033;-68
2022/08/16 00:16:45;;;;;;;3.90;3.58;;;22.60;99.90;;;;;;2073119;28;20029;-68
2022/08/16 00:17:48;;;;;;;3.80;3.50;;;22.60;99.90;;;;;;2072726;28;20026;-68
2022/08/16 00:18:50;;;;;;;4.85;3.83;;;22.50;99.90;;;;;;2073392;28;20469;-68
2022/08/16 00:19:50;;;;;;;3.60;3.30;;;22.50;99.90;;;;;;2072673;28;20074;-68
2022/08/16 00:20:51;;;;;;;4.22;3.80;;;22.50;99.90;;;;;;2072028;28;20025;-68
2022/08/16 00:21:53;;;;;;;5.53;4.03;;;22.50;99.90;;;;;;2073128;28;20366;-68
2022/08/16 00:22:54;;;;;;;4.40;3.50;;;22.50;99.90;;;;;;2071560;28;20033;-68
2022/08/16 00:23:55;;;;;;;4.68;3.72;;;22.50;99.90;;;;;;2070802;28;20125;-68
2022/08/16 00:24:56;;;;;;;5.78;4.03;;;22.50;99.90;;;;;;2072572;28;20180;-68
2022/08/16 00:25:56;;;;;;;4.65;3.95;;;22.50;99.90;;;;;;2073646;28;20087;-68
2022/08/16 00:26:57;;;;;;;3.90;3.60;;;22.40;99.90;;;;;;2073917;28;20048;-68
2022/08/16 00:27:58;;;;;;;4.60;3.67;;;22.50;99.90;;;;;;2063918;28;20026;-68
2022/08/16 00:28:59;;;;;;;4.97;4.10;;;22.40;99.90;;;;;;2071275;28;20022;-68
2022/08/16 00:29:59;;;;;;;4.38;3.85;;;22.40;99.90;;;;;;2071521;28;20022;-68
2022/08/16 00:31:00;;;;;;;4.63;4.22;;;22.40;99.90;;;;;;2072245;28;20022;-68
2022/08/16 00:32:03;;;;;;;3.38;3.08;;;22.40;99.90;;;;;;2072572;28;20034;-68
2022/08/16 00:33:04;;;;;;;3.85;3.45;;;22.40;99.90;;;;;;2075593;28;20125;-68
2022/08/16 00:34:05;;;;;;;3.70;3.33;;;22.40;99.90;;;;;;2073138;28;20485;-68
2022/08/16 00:35:08;;;;;;;4.15;3.75;;;22.30;99.90;;;;;;2073303;28;20413;-68
2022/08/16 00:36:09;;;;;;;4.40;4.00;;;22.30;99.90;;;;;;2072950;28;20034;-68
2022/08/16 00:37:11;;;;;;;3.75;3.45;;;22.30;99.90;;;;;;2071629;28;20498;-68
2022/08/16 00:38:12;;;;;;;3.92;3.60;;;22.30;99.90;;;;;;2072476;28;20064;-68
2022/08/16 00:39:14;;;;;;;4.00;3.60;;;22.30;99.90;;;;;;2072661;28;20034;-68
2022/08/16 00:40:21;;;;;;;4.20;3.80;;;22.30;99.90;;;;;;2077580;28;20032;-68
2022/08/16 00:41:21;;;;;;;3.70;3.38;;;22.30;99.90;;;;;;2076698;28;20033;-68
2022/08/16 00:42:22;;;;;;;4.28;3.60;;;22.30;99.90;;;;;;2075997;28;20430;-68
2022/08/16 00:43:34;;;;;;;5.00;3.67;;;22.30;99.90;;;;;;2073785;28;20113;-68
2022/08/16 00:44:36;;;;;;;4.95;4.00;;;22.30;99.90;;;;;;2075016;28;20116;-68
2022/08/16 00:45:49;;;;;;;3.90;3.60;;;22.20;99.90;;;;;;2073411;28;20072;-68
2022/08/16 00:46:56;;;;;;;3.63;3.33;;;22.20;99.90;;;;;;2072820;28;20029;-68
2022/08/16 00:47:57;;;;;;;4.80;3.50;;;22.20;99.90;;;;;;2074012;28;20022;-68
2022/08/16 00:48:58;;;;;;;5.65;3.80;;;22.20;99.90;;;;;;2073317;28;20489;-68
2022/08/16 00:49:59;;;;;;;6.13;3.60;;;22.20;99.90;;;;;;2074015;28;20033;-68
2022/08/16 00:51:00;;;;;;;4.85;3.22;;;22.20;99.90;;;;;;2075004;28;20024;-68
2022/08/16 00:52:02;;;;;;;4.28;3.88;;;22.20;99.90;;;;;;2073376;28;20026;-68
2022/08/16 00:53:09;;;;;;;5.13;3.78;;;22.20;99.90;;;;;;2073337;28;20109;-68
2022/08/16 00:54:12;;;;;;;6.13;3.45;;;22.20;99.90;;;;;;2072545;28;20065;-68
2022/08/16 00:55:12;;;;;;;3.83;3.58;;;22.20;99.90;;;;;;2073910;28;20108;-68
2022/08/16 00:56:18;;;;;;;3.72;3.40;;;22.20;99.90;;;;;;2074252;28;20112;-68
2022/08/16 00:57:18;;;;;;;3.97;3.50;;;22.20;99.90;;;;;;2073694;28;20034;-68
2022/08/16 00:58:21;;;;;;;3.78;3.45;;;22.20;99.90;;;;;;2073632;28;20034;-68
2022/08/16 00:59:24;;;;;;;3.17;2.97;;;22.20;99.90;;;;;;2073265;28;20038;-68
2022/08/16 01:00:27;;;;;;;5.05;3.53;;;22.20;99.90;;;;;;2074080;28;20630;-68
2022/08/16 01:01:28;;;;;;;3.95;3.60;;;22.10;99.90;;;;;;2074375;28;20354;-68
2022/08/16 01:02:29;;;;;;;4.85;4.05;;;22.10;99.90;;;;;;2072489;28;20022;-68
2022/08/16 01:03:31;;;;;;;4.95;3.47;;;22.10;99.90;;;;;;2072927;28;20041;-68
2022/08/16 01:04:32;;;;;;;4.07;3.67;;;22.10;99.90;;;;;;2073680;28;20014;-68
2022/08/16 01:05:34;;;;;;;5.55;3.60;;;22.10;99.90;;;;;;2073250;28;20022;-68
2022/08/16 01:06:36;;;;;;;4.10;3.80;;;22.10;99.90;;;;;;2075637;28;20022;-68
2022/08/16 01:07:37;;;;;;;5.28;3.70;;;22.10;99.90;;;;;;2073026;28;20026;-68
2022/08/16 01:08:40;;;;;;;4.22;3.80;;;22.10;99.90;;;;;;2076954;28;20075;-68
2022/08/16 01:09:40;;;;;;;4.00;3.60;;;22.10;99.90;;;;;;2073852;28;20041;-68
2022/08/16 01:10:41;;;;;;;4.20;3.80;;;22.10;99.90;;;;;;2072965;28;20053;-68
2022/08/16 01:11:44;;;;;;;4.95;3.50;;;22.10;99.90;;;;;;2073354;28;20034;-68
2022/08/16 01:12:44;;;;;;;5.50;3.60;;;22.10;99.90;;;;;;2073840;28;20022;-68
2022/08/16 01:13:47;;;;;;;4.57;3.88;;;22.10;99.90;;;;;;2074772;28;20144;-68
2022/08/16 01:14:54;;;;;;;3.97;3.67;;;22.10;99.90;;;;;;2075333;28;20041;-68
2022/08/16 01:16:02;;;;;;;4.07;3.60;;;22.10;99.90;;;;;;2074097;28;20417;-68
2022/08/16 01:17:03;;;;;;;4.80;4.00;;;22.20;99.90;;;;;;2074034;28;20017;-68
2022/08/16 01:18:07;;;;;;;3.65;3.35;;;22.10;99.90;;;;;;2074348;28;20101;-68
2022/08/16 01:19:15;;;;;;;3.75;3.45;;;22.20;99.90;;;;;;2071159;28;20030;-68
2022/08/16 01:20:19;;;;;;;5.88;3.60;;;22.20;99.90;;;;;;2073200;28;20632;-68
2022/08/16 01:21:58;;;;;;;4.05;3.65;;;22.10;99.90;;;;;;2075369;28;20036;-68
2022/08/16 01:23:13;;;;;;;3.80;3.50;;;22.20;99.90;;;;;;2048648;28;20512;-68
2022/08/16 01:24:46;;;;;;;3.75;3.00;;;22.20;99.90;;;;;;2071356;28;20065;-68
2022/08/16 01:25:51;;;;;;;4.82;4.03;;;22.20;99.90;;;;;;2071009;28;20053;-68
2022/08/16 01:26:56;;;;;;;3.97;3.67;;;22.10;99.90;;;;;;2073850;28;20772;-68
2022/08/16 01:28:00;;;;;;;5.70;3.70;;;22.20;99.90;;;;;;2073540;28;20021;-68
2022/08/16 01:29:06;;;;;;;4.30;3.90;;;22.20;99.90;;;;;;2073462;28;20025;-68
2022/08/16 01:30:12;;;;;;;5.32;3.72;;;22.20;99.90;;;;;;2072113;28;20482;-68
2022/08/16 01:31:16;;;;;;;5.43;3.60;;;22.20;99.90;;;;;;2074680;28;20385;-68
2022/08/16 01:32:16;;;;;;;3.83;3.47;;;22.20;99.90;;;;;;2075348;28;20030;-68
2022/08/16 01:33:19;;;;;;;3.70;3.40;;;22.20;99.90;;;;;;2072300;28;20037;-68
2022/08/16 01:34:20;;;;;;;4.30;3.90;;;22.20;99.90;;;;;;2073224;28;20609;-68
2022/08/16 01:35:50;;;;;;;4.20;3.78;;;22.20;99.90;;;;;;2074052;28;20030;-68
2022/08/16 01:37:04;;;;;;;3.95;3.65;;;22.20;99.90;;;;;;2071432;28;20107;-68
2022/08/16 01:38:28;;;;;;;5.00;3.38;;;22.20;99.90;;;;;;2072956;28;20080;-68
2022/08/16 01:39:29;;;;;;;4.38;3.92;;;22.20;99.90;;;;;;2074695;28;20041;-68
2022/08/16 01:40:30;;;;;;;5.78;3.60;;;22.20;99.90;;;;;;2073366;28;20026;-68
2022/08/16 01:41:30;;;;;;;5.40;3.70;;;22.20;99.90;;;;;;2072770;28;20049;-68
2022/08/16 01:42:32;;;;;;;4.18;3.53;;;22.20;99.90;;;;;;2074963;28;20084;-68
2022/08/16 01:43:34;;;;;;;4.28;3.88;;;22.30;99.90;;;;;;2072395;28;20413;-68
2022/08/16 01:44:36;;;;;;;4.45;3.55;;;22.30;99.90;;;;;;2073273;28;20022;-68
2022/08/16 01:45:37;;;;;;;4.30;3.90;;;22.30;99.90;;;;;;2073717;28;20017;-68
2022/08/16 01:46:44;;;;;;;5.50;3.90;;;22.30;99.90;;;;;;2074414;28;20032;-68
2022/08/16 01:47:47;;;;;;;4.30;3.63;;;22.30;99.90;;;;;;2074558;28;20086;-68
2022/08/16 01:48:57;;;;;;;4.68;4.20;;;22.30;99.90;;;;;;2074291;28;20112;-68
2022/08/16 01:49:57;;;;;;;4.10;3.63;;;22.30;99.90;;;;;;2072537;28;20022;-68
2022/08/16 01:51:00;;;;;;;4.18;3.78;;;22.30;99.90;;;;;;2073632;28;20037;-68
2022/08/16 01:52:11;;;;;;;4.70;3.83;;;22.30;99.90;;;;;;2072034;28;20489;-68
2022/08/16 01:53:12;;;;;;;4.55;3.38;;;22.30;99.90;;;;;;2072082;28;20029;-68
2022/08/16 01:54:13;;;;;;;5.25;4.10;;;22.30;99.90;;;;;;2072338;28;20026;-68
2022/08/16 01:55:16;;;;;;;4.20;3.83;;;22.30;99.90;;;;;;2070908;28;20405;-68
2022/08/16 01:56:18;;;;;;;5.78;3.72;;;22.30;99.90;;;;;;2072670;28;20052;-68
2022/08/16 01:57:20;;;;;;;5.05;3.80;;;22.40;99.90;;;;;;2076688;28;20037;-68
2022/08/16 01:58:22;;;;;;;4.38;3.88;;;22.30;99.90;;;;;;2074345;28;20083;-68
2022/08/16 01:59:23;;;;;;;4.68;3.53;;;22.30;99.90;;;;;;2073897;28;20030;-68
2022/08/16 02:00:25;;;;;;;4.13;3.63;;;22.30;99.90;;;;;;2074793;28;20057;-68
2022/08/16 02:01:26;;;;;;;6.68;3.80;;;22.40;99.90;;;;;;2073052;28;20026;-68
2022/08/16 02:02:27;;;;;;;4.30;3.90;;;22.40;99.90;;;;;;2073205;28;20469;-68
2022/08/16 02:03:28;;;;;;;4.60;3.75;;;22.30;99.90;;;;;;2076838;28;20037;-68
2022/08/16 02:04:31;;;;;;;4.55;4.15;;;22.40;99.90;;;;;;2072617;28;20026;-68
2022/08/16 02:05:32;;;;;;;6.13;4.53;;;22.40;99.90;;;;;;2075377;28;20032;-68
2022/08/16 02:06:33;;;;;;;5.10;3.97;;;22.40;99.90;;;;;;2073604;28;20021;-68
2022/08/16 02:07:35;;;;;;;5.25;3.80;;;22.40;99.90;;;;;;2074086;28;20041;-68
2022/08/16 02:08:36;;;;;;;5.28;4.20;;;22.40;99.90;;;;;;2069354;28;20022;-68
2022/08/16 02:09:37;;;;;;;5.13;4.28;;;22.40;99.90;;;;;;2076252;28;20523;-68
2022/08/16 02:10:38;;;;;;;6.75;4.18;;;22.40;99.90;;;;;;2073279;28;20042;-68
2022/08/16 02:11:41;;;;;;;4.97;3.78;;;22.40;99.90;;;;;;2075684;28;20105;-68
2022/08/16 02:12:43;;;;;;;4.75;3.60;;;22.40;99.90;;;;;;2073780;28;20049;-68
2022/08/16 02:13:44;;;;;;;4.25;3.85;;;22.40;99.90;;;;;;2072181;28;20038;-68
2022/08/16 02:14:45;;;;;;;5.05;4.15;;;22.40;99.90;;;;;;2072936;28;20512;-68
2022/08/16 02:15:46;;;;;;;5.95;3.85;;;22.40;99.90;;;;;;2073239;28;20114;-68
2022/08/16 02:16:48;;;;;;;4.57;3.83;;;22.40;99.90;;;;;;2073790;28;20083;-68
2022/08/16 02:17:48;;;;;;;4.25;3.85;;;22.40;99.90;;;;;;2073990;28;20037;-68
2022/08/16 02:18:49;;;;;;;5.43;3.92;;;22.40;99.90;;;;;;2073321;28;20034;-68
2022/08/16 02:19:50;;;;;;;5.38;3.60;;;22.40;99.90;;;;;;2075948;28;20033;-68
2022/08/16 02:20:52;;;;;;;3.78;3.42;;;22.40;99.90;;;;;;2074476;28;20030;-68
2022/08/16 02:21:54;;;;;;;4.93;4.28;;;22.40;99.90;;;;;;2075198;28;20025;-68
2022/08/16 02:22:56;;;;;;;5.63;3.60;;;22.40;99.90;;;;;;2075878;28;20025;-68
2022/08/16 02:23:57;;;;;;;8.05;4.20;;;22.40;99.90;;;;;;2072745;28;20026;-68
2022/08/16 02:24:58;;;;;;;4.32;3.92;;;22.40;99.90;;;;;;2071650;28;20112;-68
2022/08/16 02:25:58;;;;;;;4.22;3.67;;;22.40;99.90;;;;;;2072234;28;20034;-68
2022/08/16 02:26:59;;;;;;;4.55;3.88;;;22.40;99.90;;;;;;2073064;28;20024;-68
2022/08/16 02:27:59;;;;;;;4.80;3.72;;;22.40;99.90;;;;;;2074924;28;20155;-68
2022/08/16 02:29:00;;;;;;;4.63;3.72;;;22.40;99.90;;;;;;2074549;28;20362;-68
2022/08/16 02:30:01;;;;;;;3.80;3.50;;;22.40;99.90;;;;;;2075588;28;20018;-68
2022/08/16 02:31:06;;;;;;;4.78;3.75;;;22.40;99.90;;;;;;2077998;28;20091;-68
2022/08/16 02:32:10;;;;;;;5.13;4.30;;;22.40;99.90;;;;;;2072427;28;20061;-68
2022/08/16 02:33:11;;;;;;;5.15;3.60;;;22.40;99.90;;;;;;2074473;28;20037;-68
2022/08/16 02:34:12;;;;;;;4.43;3.67;;;22.40;99.90;;;;;;2073312;28;20745;-68
2022/08/16 02:35:13;;;;;;;4.13;3.72;;;22.40;99.90;;;;;;2074532;28;20481;-68
2022/08/16 02:36:14;;;;;;;4.03;3.38;;;22.40;99.90;;;;;;2076937;28;20358;-68
2022/08/16 02:37:14;;;;;;;3.65;3.35;;;22.40;99.90;;;;;;2071334;28;20032;-68
2022/08/16 02:38:15;;;;;;;4.20;3.80;;;22.40;99.90;;;;;;2072403;28;20026;-68
2022/08/16 02:39:18;;;;;;;5.18;3.75;;;22.40;99.90;;;;;;2074907;28;20034;-68
2022/08/16 02:40:20;;;;;;;4.43;4.00;;;22.40;99.90;;;;;;2072915;28;20029;-68
2022/08/16 02:41:21;;;;;;;7.65;3.78;;;22.40;99.90;;;;;;2075609;28;20022;-68
2022/08/16 02:42:22;;;;;;;4.93;3.53;;;22.40;99.90;;;;;;2077150;28;20025;-68
2022/08/16 02:43:24;;;;;;;4.15;3.72;;;22.40;99.90;;;;;;2071727;28;20076;-68
2022/08/16 02:44:25;;;;;;;4.93;3.35;;;22.40;99.90;;;;;;2073310;28;20021;-68
2022/08/16 02:45:27;;;;;;;4.05;3.65;;;22.40;99.90;;;;;;2072990;28;20039;-68
2022/08/16 02:46:27;;;;;;;3.65;3.10;;;22.40;99.90;;;;;;2077765;28;20433;-68
2022/08/16 02:47:28;;;;;;;5.35;4.00;;;22.40;99.90;;;;;;2076906;28;20026;-68
2022/08/16 02:48:29;;;;;;;4.55;3.75;;;22.40;99.90;;;;;;2074361;28;20392;-68
2022/08/16 02:49:30;;;;;;;4.10;3.70;;;22.40;99.90;;;;;;2076880;28;20033;-68
2022/08/16 02:50:31;;;;;;;4.10;3.70;;;22.40;99.90;;;;;;2072354;28;20030;-68
2022/08/16 02:51:32;;;;;;;3.92;3.53;;;22.30;99.90;;;;;;2070287;28;20069;-68
2022/08/16 02:52:33;;;;;;;3.97;3.63;;;22.30;99.90;;;;;;2075104;28;20112;-68
2022/08/16 02:53:35;;;;;;;4.93;3.65;;;22.40;99.90;;;;;;2073955;28;20029;-68
2022/08/16 02:54:36;;;;;;;4.07;3.67;;;22.40;99.90;;;;;;2072589;28;20109;-68
2022/08/16 02:55:36;;;;;;;4.57;4.00;;;22.30;99.90;;;;;;2072749;28;20033;-68
2022/08/16 02:56:37;;;;;;;3.90;3.58;;;22.30;99.90;;;;;;2072544;28;20466;-68
2022/08/16 02:57:38;;;;;;;5.00;4.15;;;22.30;99.90;;;;;;2071429;28;20040;-68
2022/08/16 02:58:40;;;;;;;4.00;3.70;;;22.30;99.90;;;;;;2069501;28;21014;-68
2022/08/16 02:59:42;;;;;;;4.28;3.90;;;22.30;99.90;;;;;;2071574;28;20116;-68
2022/08/16 03:00:42;;;;;;;3.67;3.28;;;22.30;99.90;;;;;;2076067;28;20021;-68
2022/08/16 03:01:43;;;;;;;4.57;3.42;;;22.30;99.90;;;;;;2075525;28;20093;-68
2022/08/16 03:02:44;;;;;;;3.75;3.45;;;22.30;99.90;;;;;;2071774;28;20061;-68
2022/08/16 03:03:44;;;;;;;3.60;3.40;;;22.30;99.90;;;;;;2071500;28;20026;-68
2022/08/16 03:04:45;;;;;;;4.35;3.95;;;22.30;99.90;;;;;;2070939;28;20030;-68
2022/08/16 03:05:46;;;;;;;5.15;3.92;;;22.30;99.90;;;;;;2070576;28;20022;-68
2022/08/16 03:06:46;;;;;;;5.60;3.63;;;22.30;99.90;;;;;;2072032;28;20026;-68
2022/08/16 03:07:47;;;;;;;3.67;3.38;;;22.30;99.90;;;;;;2074506;28;20022;-68
2022/08/16 03:08:49;;;;;;;3.58;3.28;;;22.30;99.90;;;;;;2073728;28;20397;-68
2022/08/16 03:09:50;;;;;;;5.05;3.85;;;22.30;99.90;;;;;;2074276;28;20018;-68
2022/08/16 03:10:51;;;;;;;5.88;4.20;;;22.30;99.90;;;;;;2071487;28;20025;-68
2022/08/16 03:11:52;;;;;;;4.45;3.50;;;22.30;99.90;;;;;;2072940;28;20026;-68
2022/08/16 03:12:52;;;;;;;3.95;3.65;;;22.20;99.90;;;;;;2073320;28;20103;-68
2022/08/16 03:13:54;;;;;;;4.82;3.45;;;22.20;99.90;;;;;;2072177;28;20084;-68
2022/08/16 03:14:55;;;;;;;4.10;3.42;;;22.20;99.90;;;;;;2071398;28;20134;-68
2022/08/16 03:15:55;;;;;;;3.53;3.22;;;22.20;99.90;;;;;;2073961;28;20053;-68
2022/08/16 03:16:57;;;;;;;4.35;3.47;;;22.20;99.90;;;;;;2071930;28;20734;-68
2022/08/16 03:17:57;;;;;;;4.03;3.65;;;22.20;99.90;;;;;;2074531;28;20386;-68
2022/08/16 03:18:58;;;;;;;3.78;3.38;;;22.20;99.90;;;;;;2074256;28;20061;-68
2022/08/16 03:19:58;;;;;;;4.10;3.75;;;22.20;99.90;;;;;;2073822;28;20084;-68
2022/08/16 03:20:59;;;;;;;3.60;3.30;;;22.20;99.90;;;;;;2072717;28;20113;-68
2022/08/16 03:22:00;;;;;;;4.60;3.20;;;22.10;99.90;;;;;;2072536;28;20022;-68
2022/08/16 03:23:01;;;;;;;3.33;3.03;;;22.10;99.90;;;;;;2070575;28;20026;-68
2022/08/16 03:24:02;;;;;;;3.55;3.25;;;22.10;99.90;;;;;;2071188;28;20028;-68
2022/08/16 03:25:07;;;;;;;5.68;3.72;;;22.10;99.90;;;;;;2073459;28;20057;-68
2022/08/16 03:26:08;;;;;;;4.18;3.70;;;22.10;99.90;;;;;;2076603;28;20045;-68
2022/08/16 03:27:09;;;;;;;3.90;3.60;;;22.10;99.90;;;;;;2072862;28;20116;-68
2022/08/16 03:28:09;;;;;;;3.65;3.35;;;22.00;99.90;;;;;;2075089;28;20018;-68
2022/08/16 03:29:10;;;;;;;4.03;3.67;;;22.00;99.90;;;;;;2072732;28;20171;-68
2022/08/16 03:30:16;;;;;;;4.55;3.70;;;22.00;99.90;;;;;;2069756;28;20049;-68
2022/08/16 03:31:16;;;;;;;4.45;3.55;;;22.00;99.90;;;;;;2072368;28;20034;-68
2022/08/16 03:32:17;;;;;;;4.88;3.80;;;22.00;99.90;;;;;;2071976;28;20036;-68
2022/08/16 03:33:18;;;;;;;4.35;3.80;;;22.00;99.90;;;;;;2073887;28;20032;-68
2022/08/16 03:34:19;;;;;;;4.03;3.63;;;22.00;99.90;;;;;;2073804;28;20365;-68
2022/08/16 03:35:25;;;;;;;4.05;3.65;;;22.00;99.90;;;;;;2074337;28;20100;-68
2022/08/16 03:36:26;;;;;;;3.60;3.10;;;22.00;99.90;;;;;;2073118;28;20382;-68
2022/08/16 03:37:26;;;;;;;3.42;3.13;;;21.90;99.90;;;;;;2072448;28;20041;-68
2022/08/16 03:38:28;;;;;;;3.85;3.55;;;21.90;99.90;;;;;;2071564;28;20022;-68
2022/08/16 03:39:29;;;;;;;3.67;3.38;;;21.90;99.90;;;;;;2072498;28;20032;-68
2022/08/16 03:40:32;;;;;;;3.63;3.25;;;21.90;99.90;;;;;;2072019;28;20013;-68
2022/08/16 03:41:32;;;;;;;6.43;3.50;;;21.90;99.90;;;;;;2070463;28;20114;-68
2022/08/16 03:42:33;;;;;;;4.30;3.45;;;21.80;99.90;;;;;;2073230;28;20025;-68
2022/08/16 03:43:34;;;;;;;3.85;3.50;;;21.90;99.90;;;;;;2072493;28;20014;-68
2022/08/16 03:44:34;;;;;;;3.72;3.42;;;21.80;99.90;;;;;;2074426;28;20045;-68
2022/08/16 03:45:37;;;;;;;4.95;3.95;;;21.80;99.90;;;;;;2073835;28;20022;-68
2022/08/16 03:46:38;;;;;;;3.70;3.22;;;21.80;99.90;;;;;;2073607;28;20097;-68
2022/08/16 03:47:38;;;;;;;3.70;3.40;;;21.80;99.90;;;;;;2071810;28;20026;-68
2022/08/16 03:48:40;;;;;;;3.72;3.42;;;21.80;99.90;;;;;;2072830;28;20022;-68
2022/08/16 03:49:40;;;;;;;4.25;3.83;;;21.80;99.90;;;;;;2073257;28;20026;-68
2022/08/16 03:50:41;;;;;;;3.78;3.47;;;21.80;99.90;;;;;;2073164;28;20064;-68
2022/08/16 03:51:42;;;;;;;3.75;3.22;;;21.80;99.90;;;;;;2074918;28;20084;-68
2022/08/16 03:52:44;;;;;;;4.35;3.83;;;21.80;99.90;;;;;;2072809;28;20385;-68
2022/08/16 03:53:44;;;;;;;5.65;4.00;;;21.70;99.90;;;;;;2072969;28;20064;-68
2022/08/16 03:54:46;;;;;;;3.50;3.20;;;21.70;99.90;;;;;;2071918;28;20041;-68
2022/08/16 03:55:47;;;;;;;3.95;3.47;;;21.70;99.90;;;;;;2072674;28;20030;-68
2022/08/16 03:56:48;;;;;;;4.10;3.40;;;21.70;99.90;;;;;;2073625;28;20036;-68
2022/08/16 03:57:48;;;;;;;5.13;4.07;;;21.70;99.90;;;;;;2072171;28;20038;-68
2022/08/16 03:58:49;;;;;;;4.10;3.75;;;21.70;99.90;;;;;;2072331;28;20553;-68
2022/08/16 03:59:49;;;;;;;4.43;3.78;;;21.70;99.90;;;;;;2075736;28;20060;-68
2022/08/16 04:00:50;;;;;;;3.88;3.53;;;21.70;99.90;;;;;;2074285;28;20029;-68
2022/08/16 04:01:51;;;;;;;4.75;3.72;;;21.60;99.90;;;;;;2073970;28;20030;-68
2022/08/16 04:02:54;;;;;;;4.15;3.75;;;21.60;99.90;;;;;;2072291;28;20049;-68
2022/08/16 04:03:55;;;;;;;3.72;3.38;;;21.60;99.90;;;;;;2071588;28;20018;-68
2022/08/16 04:04:55;;;;;;;4.05;3.55;;;21.60;99.90;;;;;;2071544;28;20018;-68
2022/08/16 04:05:56;;;;;;;3.90;3.58;;;21.60;99.90;;;;;;2073237;28;20029;-68
2022/08/16 04:06:57;;;;;;;3.78;3.20;;;21.60;99.90;;;;;;2072979;28;20014;-68
2022/08/16 04:07:57;;;;;;;4.15;3.58;;;21.60;99.90;;;;;;2074427;28;20022;-68
2022/08/16 04:08:58;;;;;;;5.35;3.45;;;21.50;99.90;;;;;;2072084;28;20057;-68
2022/08/16 04:09:58;;;;;;;4.03;3.55;;;21.60;99.90;;;;;;2073036;28;20517;-68
2022/08/16 04:10:59;;;;;;;4.05;3.65;;;21.50;99.90;;;;;;2072588;28;20170;-68
2022/08/16 04:11:59;;;;;;;3.88;3.58;;;21.50;99.90;;;;;;2073072;28;20029;-68
2022/08/16 04:13:00;;;;;;;5.57;4.05;;;21.50;99.90;;;;;;2071543;28;20386;-68
2022/08/16 04:14:01;;;;;;;5.53;4.65;;;21.50;99.90;;;;;;2072338;28;20104;-68
2022/08/16 04:15:05;;;;;;;5.25;4.03;;;21.50;99.90;;;;;;2073840;28;20091;-68
2022/08/16 04:16:06;;;;;;;5.13;3.85;;;21.50;99.90;;;;;;2076601;28;20117;-68
2022/08/16 04:17:06;;;;;;;4.68;3.60;;;21.40;99.90;;;;;;2074015;28;20366;-68
2022/08/16 04:18:08;;;;;;;4.53;3.33;;;21.50;99.90;;;;;;2074377;28;20080;-68
2022/08/16 04:19:08;;;;;;;4.18;3.78;;;21.50;99.90;;;;;;2074733;28;20042;-68
2022/08/16 04:20:12;;;;;;;3.88;3.50;;;21.40;99.90;;;;;;2073878;28;20030;-68
2022/08/16 04:21:13;;;;;;;3.85;3.50;;;21.40;99.90;;;;;;2075309;28;20088;-68
2022/08/16 04:22:13;;;;;;;3.95;3.50;;;21.40;99.90;;;;;;2075026;28;20478;-68
2022/08/16 04:23:14;;;;;;;4.22;3.83;;;21.40;99.90;;;;;;2073266;28;20539;-68
2022/08/16 04:24:15;;;;;;;4.65;4.07;;;21.40;99.90;;;;;;2073850;28;20022;-68
2022/08/16 04:25:15;;;;;;;5.10;4.15;;;21.40;99.90;;;;;;2077222;28;20504;-68
2022/08/16 04:26:16;;;;;;;4.40;3.90;;;21.30;99.90;;;;;;2075015;28;20036;-68
2022/08/16 04:27:17;;;;;;;4.32;3.92;;;21.30;99.90;;;;;;2074066;28;20029;-68
2022/08/16 04:28:17;;;;;;;4.25;3.85;;;21.30;99.90;;;;;;2072539;28;20727;-68
2022/08/16 04:29:18;;;;;;;4.45;4.10;;;21.30;99.90;;;;;;2073710;28;20102;-68
2022/08/16 04:30:21;;;;;;;4.75;3.83;;;21.30;99.90;;;;;;2074557;28;20034;-68
2022/08/16 04:31:22;;;;;;;3.97;3.67;;;21.30;99.90;;;;;;2074463;28;20044;-68
2022/08/16 04:32:23;;;;;;;4.82;4.28;;;21.30;99.90;;;;;;2075435;28;20014;-68
2022/08/16 04:33:24;;;;;;;3.70;3.40;;;21.30;99.90;;;;;;2073648;28;20030;-68
2022/08/16 04:34:31;;;;;;;3.95;3.40;;;21.30;99.90;;;;;;2075145;28;20014;-68
2022/08/16 04:35:32;;;;;;;3.70;3.40;;;21.30;99.90;;;;;;2076109;28;20022;-68
2022/08/16 04:36:34;;;;;;;4.70;3.97;;;21.30;99.90;;;;;;2072950;28;20109;-68
2022/08/16 04:37:35;;;;;;;5.10;3.63;;;21.30;99.90;;;;;;2073607;28;20057;-68
2022/08/16 04:38:36;;;;;;;4.20;3.70;;;21.30;99.90;;;;;;2075622;28;20050;-68
2022/08/16 04:39:37;;;;;;;6.43;4.15;;;21.30;99.90;;;;;;2075216;28;20026;-68
2022/08/16 04:40:37;;;;;;;4.20;3.80;;;21.30;99.90;;;;;;2075461;28;20106;-68
2022/08/16 04:41:38;;;;;;;4.43;4.00;;;21.30;99.90;;;;;;2074057;28;20025;-69
2022/08/16 04:42:41;;;;;;;4.72;4.07;;;21.30;99.90;;;;;;2077463;28;20397;-68
2022/08/16 04:43:42;;;;;;;4.15;3.75;;;21.30;99.90;;;;;;2070736;28;20490;-68
2022/08/16 04:44:43;;;;;;;4.72;4.00;;;21.20;99.90;;;;;;2074975;28;20405;-68
2022/08/16 04:45:44;;;;;;;4.13;3.83;;;21.20;99.90;;;;;;2074945;28;20108;-68
2022/08/16 04:46:45;;;;;;;4.03;3.70;;;21.20;99.90;;;;;;2073541;28;20132;-68
2022/08/16 04:47:45;;;;;;;3.60;3.22;;;21.20;99.90;;;;;;2075017;28;20026;-68
2022/08/16 04:48:46;;;;;;;7.82;4.30;;;21.20;99.90;;;;;;2075433;28;20500;-68
2022/08/16 04:49:46;;;;;;;5.03;3.90;;;21.20;99.90;;;;;;2074134;28;20065;-68
2022/08/16 04:50:48;;;;;;;4.45;3.85;;;21.30;99.90;;;;;;2075533;28;20036;-68
2022/08/16 04:51:49;;;;;;;4.30;3.90;;;21.20;99.90;;;;;;2073665;28;20441;-68
2022/08/16 04:52:50;;;;;;;4.57;4.03;;;21.20;99.90;;;;;;2073025;28;20045;-68
2022/08/16 04:53:51;;;;;;;5.00;4.10;;;21.20;99.90;;;;;;2075467;28;20095;-68
2022/08/16 04:54:51;;;;;;;3.88;3.58;;;21.20;99.90;;;;;;2075680;28;20083;-69
2022/08/16 04:55:52;;;;;;;5.38;3.85;;;21.20;99.90;;;;;;2074201;28;20167;-68
2022/08/16 04:56:52;;;;;;;4.28;3.45;;;21.20;99.90;;;;;;2076141;28;20490;-68
2022/08/16 04:57:55;;;;;;;5.13;3.95;;;21.30;99.90;;;;;;2075225;28;20041;-68
2022/08/16 04:58:56;;;;;;;4.40;4.00;;;21.30;99.90;;;;;;2075755;28;20044;-68
2022/08/16 04:59:57;;;;;;;7.55;4.18;;;21.20;99.90;;;;;;2073600;28;20109;-68
2022/08/16 05:00:57;;;;;;;4.50;4.20;;;21.30;99.90;;;;;;2075765;28;20022;-68
2022/08/16 05:01:58;;;;;;;4.88;4.38;;;21.20;99.90;;;;;;2069772;28;20026;-68
2022/08/16 05:03:03;;;;;;;7.28;4.25;;;21.30;99.90;;;;;;2078036;28;20021;-68
2022/08/16 05:04:04;;;;;;;5.68;4.25;;;21.30;99.90;;;;;;2073935;28;20347;-68
2022/08/16 05:05:06;;;;;;;6.03;4.00;;;21.30;99.90;;;;;;2076077;28;20048;-68
2022/08/16 05:06:07;;;;;;;4.35;3.95;;;21.30;99.90;;;;;;2074389;28;20026;-68
2022/08/16 05:07:07;;;;;;;4.95;4.45;;;21.30;99.90;;;;;;2073142;28;20072;-68
2022/08/16 05:08:08;;;;;;;4.40;4.00;;;21.30;99.90;;;;;;2077827;28;20065;-68
2022/08/16 05:09:09;;;;;;;5.70;4.38;;;21.30;99.90;;;;;;2073013;28;20026;-68
2022/08/16 05:10:09;;;;;;;6.03;4.38;;;21.30;99.90;;;;;;2074768;28;20592;-68
2022/08/16 05:11:12;;;;;;;4.85;4.10;;;21.40;99.90;;;;;;2074421;28;20048;-68
2022/08/16 05:12:13;;;;;;;4.78;4.32;;;21.40;99.90;;;;;;2075412;28;20378;-68
2022/08/16 05:13:16;;;;;;;4.50;4.10;;;21.40;99.90;;;;;;2075191;28;20095;-68
2022/08/16 05:14:16;;;;;;;4.20;3.80;;;21.40;99.90;;;;;;2073273;28;20021;-68
2022/08/16 05:15:17;;;;;;;4.38;3.97;;;21.40;99.90;;;;;;2075933;28;20041;-68
2022/08/16 05:16:26;;;;;;;5.78;3.92;;;21.40;99.90;;;;;;2074282;28;20068;-68
2022/08/16 05:17:26;;;;;;;3.70;3.33;;;21.50;99.90;;;;;;2072956;28;20026;-68
2022/08/16 05:18:27;;;;;;;4.30;3.78;;;21.50;99.90;;;;;;2074182;28;20112;-68
2022/08/16 05:19:28;;;;;;;4.32;3.88;;;21.50;99.90;;;;;;2078106;28;20034;-68
2022/08/16 05:20:29;;;;;;;4.40;3.90;;;21.50;99.90;;;;;;2074816;28;20018;-68
2022/08/16 05:21:34;;;;;;;8.23;3.95;;;21.60;99.90;;;;;;2072031;28;20025;-68
2022/08/16 05:22:35;;;;;;;5.30;4.32;;;21.60;99.90;;;;;;2078474;28;20018;-68
2022/08/16 05:23:36;;;;;;;5.25;3.97;;;21.60;99.90;;;;;;2071828;28;20483;-68
2022/08/16 05:24:37;;;;;;;9.07;4.18;;;21.60;99.90;;;;;;2073715;28;20373;-68